Time;durP1;ratioP1;P1;durP2;ratioP2;P2;SDS_P1;SDS_P2;PMS_P1;PMS_P2;Temp;Humidity;BMP_temperature;BMP_pressure;BME280_temperature;BME280_humidity;BME280_pressure;Samples;Min_cycle;Max_cycle;Signal;HPM_P1;HPM_P2
2022/10/25 00:01:40;;;;;;;0.50;0.40;;;13.30;99.90;;;;;;5050729;28;20536;-75
2022/10/25 00:04:07;;;;;;;0.60;0.40;;;13.30;99.90;;;;;;5050278;28;20447;-75
2022/10/25 00:06:34;;;;;;;0.50;0.40;;;13.30;99.90;;;;;;5050593;28;20472;-75
2022/10/25 00:09:01;;;;;;;0.50;0.40;;;13.30;99.90;;;;;;5050646;28;20855;-75
2022/10/25 00:11:29;;;;;;;6.57;0.93;;;13.40;99.90;;;;;;5050299;28;20480;-76
2022/10/25 00:13:59;;;;;;;2.87;0.60;;;13.40;99.90;;;;;;5050333;28;20445;-75
2022/10/25 00:16:29;;;;;;;10.13;1.73;;;13.40;99.90;;;;;;5050865;28;20429;-75
2022/10/25 00:18:55;;;;;;;5.33;0.73;;;13.40;99.90;;;;;;5050773;28;20447;-75
2022/10/25 00:21:22;;;;;;;1.30;1.27;;;13.40;99.90;;;;;;5049370;28;20455;-76
2022/10/25 00:23:50;;;;;;;1.77;0.93;;;13.40;99.90;;;;;;5050602;28;20441;-76
2022/10/25 00:26:18;;;;;;;0.50;0.30;;;13.40;99.90;;;;;;5050384;28;20448;-75
2022/10/25 00:28:45;;;;;;;0.77;0.60;;;13.50;99.90;;;;;;5050317;28;20883;-75
2022/10/25 00:31:15;;;;;;;1.10;0.70;;;13.50;99.90;;;;;;5050066;28;21055;-75
2022/10/25 00:33:43;;;;;;;1.57;1.47;;;13.60;99.90;;;;;;5050553;28;20532;-75
2022/10/25 00:36:13;;;;;;;5.33;1.37;;;13.60;99.90;;;;;;5049812;28;20444;-75
2022/10/25 00:38:40;;;;;;;2.60;0.70;;;13.60;99.90;;;;;;5050060;28;21009;-75
2022/10/25 00:41:08;;;;;;;1.80;0.93;;;13.60;99.90;;;;;;5050160;28;20501;-75
2022/10/25 00:43:37;;;;;;;3.23;1.13;;;13.70;99.90;;;;;;5050090;28;20429;-75
2022/10/25 00:46:07;;;;;;;0.60;0.50;;;13.70;99.90;;;;;;5050159;28;20803;-76
2022/10/25 00:48:36;;;;;;;0.90;0.50;;;13.70;99.90;;;;;;5049950;28;20437;-76
2022/10/25 00:51:03;;;;;;;0.83;0.40;;;13.70;99.90;;;;;;5011533;28;1115777;-76
2022/10/25 00:53:34;;;;;;;1.23;1.17;;;13.70;99.90;;;;;;5050914;28;20648;-76
2022/10/25 00:56:06;;;;;;;0.70;0.70;;;13.70;99.90;;;;;;5050707;28;20437;-75
2022/10/25 00:58:35;;;;;;;1.20;1.10;;;13.70;99.90;;;;;;5051006;28;20536;-76
2022/10/25 01:01:06;;;;;;;0.50;0.40;;;13.70;99.90;;;;;;5051401;28;20456;-75
2022/10/25 01:03:36;;;;;;;1.93;1.17;;;13.70;99.90;;;;;;5054530;28;21139;-75
2022/10/25 01:06:05;;;;;;;0.50;0.40;;;13.60;99.90;;;;;;5054190;28;20429;-75
2022/10/25 01:08:33;;;;;;;0.87;0.77;;;13.60;99.90;;;;;;5054844;28;20443;-76
2022/10/25 01:11:00;;;;;;;1.03;0.60;;;13.60;99.90;;;;;;5054482;28;20479;-76
2022/10/25 01:13:27;;;;;;;0.50;0.40;;;13.60;99.90;;;;;;5054326;28;20481;-75
2022/10/25 01:16:03;;;;;;;2.30;0.50;;;13.70;99.90;;;;;;5054372;28;20455;-75
2022/10/25 01:18:42;;;;;;;0.70;0.50;;;13.70;99.90;;;;;;5054438;28;20924;-76
2022/10/25 01:21:49;;;;;;;1.00;0.63;;;13.70;99.90;;;;;;5053938;28;20457;-75
2022/10/25 01:24:50;;;;;;;0.97;0.87;;;13.60;99.90;;;;;;5054455;28;20439;-75
2022/10/25 01:27:37;;;;;;;0.50;0.40;;;13.60;99.90;;;;;;5054671;28;20449;-75
2022/10/25 01:30:10;;;;;;;2.10;1.40;;;13.60;99.90;;;;;;5054433;28;20460;-75
2022/10/25 01:33:02;;;;;;;0.50;0.40;;;13.60;99.90;;;;;;5053688;28;20499;-75
2022/10/25 01:35:32;;;;;;;0.50;0.40;;;13.70;99.90;;;;;;5050173;28;20445;-75
2022/10/25 01:38:24;;;;;;;0.50;0.40;;;13.70;99.90;;;;;;5054151;28;20465;-75
2022/10/25 01:41:00;;;;;;;0.50;0.40;;;13.70;99.90;;;;;;5054012;28;20457;-75
2022/10/25 01:43:37;;;;;;;1.23;0.73;;;13.70;99.90;;;;;;5053861;28;20813;-75
2022/10/25 01:46:15;;;;;;;0.50;0.40;;;13.70;99.90;;;;;;5053905;28;20425;-75
2022/10/25 01:48:47;;;;;;;0.50;0.40;;;13.70;99.90;;;;;;5053651;28;20436;-76
2022/10/25 01:51:17;;;;;;;1.07;0.60;;;13.80;99.90;;;;;;5053790;28;20475;-75
2022/10/25 01:53:45;;;;;;;0.83;0.80;;;13.80;99.90;;;;;;5053514;28;20480;-75
2022/10/25 01:56:17;;;;;;;0.50;0.40;;;13.80;99.90;;;;;;5053930;28;20441;-75
2022/10/25 01:58:52;;;;;;;0.50;0.40;;;13.90;99.90;;;;;;5053283;28;20429;-75
2022/10/25 02:01:27;;;;;;;0.63;0.60;;;13.90;99.90;;;;;;5053566;28;20465;-75
2022/10/25 02:04:01;;;;;;;1.33;1.23;;;13.90;99.90;;;;;;5053412;28;20516;-74
2022/10/25 02:06:33;;;;;;;0.50;0.40;;;13.90;99.90;;;;;;5053855;28;20437;-75
2022/10/25 02:09:05;;;;;;;1.90;1.43;;;13.90;99.90;;;;;;5053323;28;20440;-75
2022/10/25 02:11:33;;;;;;;0.60;0.40;;;13.90;99.90;;;;;;5053388;28;20457;-75
2022/10/25 02:14:13;;;;;;;0.50;0.40;;;13.90;99.90;;;;;;5051975;28;20433;-75
2022/10/25 02:16:44;;;;;;;0.90;0.90;;;13.90;99.90;;;;;;5053880;28;20432;-75
2022/10/25 02:19:17;;;;;;;0.50;0.40;;;13.90;99.90;;;;;;5052915;28;20449;-75
2022/10/25 02:21:46;;;;;;;3.07;0.53;;;13.90;99.90;;;;;;5053083;28;20453;-75
2022/10/25 02:24:17;;;;;;;0.60;0.50;;;13.80;99.90;;;;;;5052900;28;20775;-75
2022/10/25 02:26:46;;;;;;;1.27;1.00;;;13.80;99.90;;;;;;5053454;28;20437;-75
2022/10/25 02:29:14;;;;;;;1.33;1.23;;;13.70;99.90;;;;;;5052926;28;20445;-75
2022/10/25 02:31:41;;;;;;;9.60;1.43;;;13.70;99.90;;;;;;5052688;28;20457;-75
2022/10/25 02:34:08;;;;;;;0.50;0.40;;;13.70;99.90;;;;;;5052695;28;20439;-76
2022/10/25 02:36:37;;;;;;;0.97;0.83;;;13.80;99.90;;;;;;5053134;28;20787;-75
2022/10/25 02:39:05;;;;;;;0.70;0.70;;;13.80;99.90;;;;;;5052833;28;20451;-76
2022/10/25 02:41:32;;;;;;;0.50;0.50;;;13.80;99.90;;;;;;5052929;28;20457;-75
2022/10/25 02:43:59;;;;;;;0.50;0.40;;;13.80;99.90;;;;;;5052382;28;20438;-75
2022/10/25 02:46:26;;;;;;;0.53;0.50;;;13.80;99.90;;;;;;5052724;28;20448;-75
2022/10/25 02:48:53;;;;;;;0.70;0.40;;;13.80;99.90;;;;;;5052775;28;20440;-76
2022/10/25 02:51:20;;;;;;;0.60;0.40;;;13.90;99.90;;;;;;5053624;28;20484;-77
2022/10/25 02:53:48;;;;;;;0.60;0.50;;;13.90;99.90;;;;;;5052535;28;20512;-76
2022/10/25 02:56:18;;;;;;;0.97;0.60;;;13.90;99.90;;;;;;5052547;28;20445;-76
2022/10/25 02:58:45;;;;;;;3.07;0.83;;;13.90;99.90;;;;;;5054419;28;20441;-77
2022/10/25 03:01:14;;;;;;;3.33;1.17;;;13.90;99.90;;;;;;5052681;28;20496;-77
2022/10/25 03:03:41;;;;;;;2.77;0.40;;;13.90;99.90;;;;;;5052672;28;20516;-76
2022/10/25 03:06:09;;;;;;;1.17;1.07;;;13.90;99.90;;;;;;5052505;28;20439;-77
2022/10/25 03:08:36;;;;;;;1.30;0.70;;;14.00;99.90;;;;;;5051765;28;20934;-76
2022/10/25 03:11:06;;;;;;;0.53;0.53;;;13.90;99.90;;;;;;5052439;28;20509;-76
2022/10/25 03:13:32;;;;;;;0.60;0.50;;;13.90;99.90;;;;;;5052559;28;20842;-77
2022/10/25 03:16:00;;;;;;;1.20;0.93;;;13.90;99.90;;;;;;5052172;28;20528;-77
2022/10/25 03:18:26;;;;;;;1.60;0.77;;;13.90;99.90;;;;;;5052058;28;20519;-76
2022/10/25 03:20:57;;;;;;;3.97;3.60;;;13.90;99.90;;;;;;5052405;28;21045;-78
2022/10/25 03:23:25;;;;;;;0.50;0.40;;;13.90;99.90;;;;;;5052625;28;20437;-78
2022/10/25 03:25:52;;;;;;;0.50;0.40;;;13.90;99.90;;;;;;5052942;28;20448;-78
2022/10/25 03:28:20;;;;;;;0.80;0.60;;;13.90;99.90;;;;;;5053135;28;20843;-78
2022/10/25 03:30:47;;;;;;;0.50;0.40;;;13.90;99.90;;;;;;5053582;28;20465;-77
2022/10/25 03:33:14;;;;;;;1.07;0.77;;;13.90;99.90;;;;;;5052757;28;20477;-77
2022/10/25 03:35:41;;;;;;;0.50;0.40;;;13.90;99.90;;;;;;5052333;28;20820;-77
2022/10/25 03:38:07;;;;;;;0.50;0.40;;;13.90;99.90;;;;;;5053158;28;20443;-77
2022/10/25 03:40:34;;;;;;;3.97;3.60;;;13.90;99.90;;;;;;5053024;28;20540;-77
2022/10/25 03:43:01;;;;;;;0.50;0.40;;;13.90;99.90;;;;;;5051685;28;21160;-77
2022/10/25 03:45:29;;;;;;;1.63;0.73;;;13.90;99.90;;;;;;5051904;28;20441;-76
2022/10/25 03:47:56;;;;;;;0.50;0.40;;;13.90;99.90;;;;;;5051892;28;20531;-76
2022/10/25 03:50:23;;;;;;;1.43;0.80;;;13.90;99.90;;;;;;5051805;28;20519;-76
2022/10/25 03:52:50;;;;;;;0.50;0.40;;;13.80;99.90;;;;;;5051467;28;20628;-76
2022/10/25 03:55:17;;;;;;;0.50;0.40;;;13.80;99.90;;;;;;5051827;28;20447;-77
2022/10/25 03:57:44;;;;;;;0.50;0.30;;;13.80;99.90;;;;;;5051299;28;20437;-77
2022/10/25 04:00:12;;;;;;;3.53;0.97;;;13.70;99.90;;;;;;5042708;28;20462;-77
2022/10/25 04:02:40;;;;;;;0.50;0.37;;;13.70;99.90;;;;;;5031810;28;20457;-77
2022/10/25 04:05:07;;;;;;;0.60;0.50;;;13.70;99.90;;;;;;5031590;28;20541;-77
2022/10/25 04:07:34;;;;;;;0.80;0.60;;;13.70;99.90;;;;;;5031940;28;20444;-76
2022/10/25 04:10:02;;;;;;;0.50;0.40;;;13.70;99.90;;;;;;5031448;28;20544;-76
2022/10/25 04:12:29;;;;;;;1.00;0.60;;;13.70;99.90;;;;;;5031589;28;20484;-76
2022/10/25 04:14:56;;;;;;;0.50;0.40;;;13.70;99.90;;;;;;5031244;28;20452;-77
2022/10/25 04:17:22;;;;;;;0.50;0.50;;;13.80;99.90;;;;;;5031958;28;20502;-77
2022/10/25 04:19:51;;;;;;;2.43;0.50;;;13.80;99.90;;;;;;5031606;28;20935;-77
2022/10/25 04:22:17;;;;;;;0.80;0.70;;;13.80;99.90;;;;;;5031905;28;20448;-77
2022/10/25 04:24:44;;;;;;;0.63;0.63;;;13.80;99.90;;;;;;5031081;28;20446;-77
2022/10/25 04:27:11;;;;;;;0.90;0.90;;;13.80;99.90;;;;;;5031612;28;20528;-76
2022/10/25 04:29:38;;;;;;;4.50;0.70;;;13.90;99.90;;;;;;5031492;28;20442;-76
2022/10/25 04:32:06;;;;;;;4.10;1.23;;;13.90;99.90;;;;;;5032112;28;20442;-77
2022/10/25 04:34:32;;;;;;;0.70;0.60;;;13.90;99.90;;;;;;5031166;28;20473;-77
2022/10/25 04:37:01;;;;;;;2.20;0.97;;;13.90;99.90;;;;;;5034278;28;20943;-78
2022/10/25 04:39:27;;;;;;;5.87;0.90;;;14.00;99.90;;;;;;5035697;28;20485;-77
2022/10/25 04:41:54;;;;;;;0.50;0.40;;;13.90;99.90;;;;;;5035454;28;20457;-77
2022/10/25 04:44:21;;;;;;;0.50;0.30;;;14.00;99.90;;;;;;5035575;28;20440;-76
2022/10/25 04:46:48;;;;;;;0.60;0.60;;;14.00;99.90;;;;;;5035184;28;20814;-76
2022/10/25 04:49:16;;;;;;;0.50;0.40;;;14.00;99.90;;;;;;5035018;28;20437;-77
2022/10/25 04:51:43;;;;;;;1.07;0.97;;;14.00;99.90;;;;;;5035215;28;20874;-77
2022/10/25 04:54:13;;;;;;;0.60;0.60;;;14.00;99.90;;;;;;5034574;28;20511;-77
2022/10/25 04:56:40;;;;;;;1.00;0.70;;;14.00;99.90;;;;;;5034919;28;20438;-76
2022/10/25 04:59:06;;;;;;;1.10;0.50;;;14.00;99.90;;;;;;5034973;28;20437;-77
2022/10/25 05:01:33;;;;;;;2.33;1.03;;;14.00;99.90;;;;;;5035119;28;20991;-77
2022/10/25 05:04:00;;;;;;;4.40;2.10;;;14.00;99.90;;;;;;5035246;28;20537;-77
2022/10/25 05:06:27;;;;;;;0.50;0.40;;;14.00;99.90;;;;;;5045113;28;20495;-77
2022/10/25 05:08:55;;;;;;;1.80;0.70;;;14.00;99.90;;;;;;5050351;28;20930;-78
2022/10/25 05:11:24;;;;;;;2.00;1.90;;;14.00;99.90;;;;;;5055393;28;20471;-77
2022/10/25 05:13:52;;;;;;;3.23;1.67;;;14.00;99.90;;;;;;5055590;28;20473;-78
2022/10/25 05:16:22;;;;;;;0.70;0.50;;;14.00;99.90;;;;;;5055644;28;20443;-77
2022/10/25 05:18:49;;;;;;;2.83;2.07;;;13.90;99.90;;;;;;5045133;28;20463;-77
2022/10/25 05:21:17;;;;;;;1.17;0.50;;;13.90;99.90;;;;;;5050579;28;20471;-76
2022/10/25 05:23:44;;;;;;;0.50;0.40;;;13.90;99.90;;;;;;5055088;28;20433;-77
2022/10/25 05:26:13;;;;;;;1.73;0.73;;;13.80;99.90;;;;;;5054130;28;20441;-77
2022/10/25 05:28:43;;;;;;;0.57;0.57;;;13.90;99.90;;;;;;5053881;28;20965;-76
2022/10/25 05:31:14;;;;;;;0.50;0.37;;;13.80;99.90;;;;;;5054049;28;20826;-77
2022/10/25 05:33:43;;;;;;;1.40;1.40;;;13.70;99.90;;;;;;5053867;28;20465;-76
2022/10/25 05:36:11;;;;;;;0.77;0.60;;;13.80;99.90;;;;;;5053452;28;20590;-76
2022/10/25 05:38:38;;;;;;;0.50;0.40;;;13.80;99.90;;;;;;5054128;28;20436;-77
2022/10/25 05:41:05;;;;;;;1.00;0.83;;;13.80;99.90;;;;;;5053824;28;20467;-76
2022/10/25 05:43:32;;;;;;;0.60;0.50;;;13.80;99.90;;;;;;5054471;28;20823;-76
2022/10/25 05:46:05;;;;;;;3.07;2.77;;;13.80;99.90;;;;;;5053478;28;20451;-77
2022/10/25 05:48:34;;;;;;;0.50;0.40;;;13.90;99.90;;;;;;5054154;28;20503;-76
2022/10/25 05:51:12;;;;;;;0.50;0.30;;;13.90;99.90;;;;;;5053840;28;20559;-76
2022/10/25 05:53:42;;;;;;;0.50;0.30;;;14.00;99.90;;;;;;5053578;28;20476;-76
2022/10/25 05:56:09;;;;;;;1.50;1.40;;;14.00;99.90;;;;;;5054066;28;20445;-76
2022/10/25 05:58:36;;;;;;;0.50;0.40;;;14.00;99.90;;;;;;5053825;28;20477;-76
2022/10/25 06:01:05;;;;;;;0.60;0.40;;;14.00;99.90;;;;;;5053753;28;20464;-77
2022/10/25 06:03:33;;;;;;;1.33;0.63;;;14.00;99.90;;;;;;5053654;28;20432;-76
2022/10/25 06:06:01;;;;;;;0.50;0.30;;;14.00;99.90;;;;;;5053880;28;20449;-78
2022/10/25 06:08:29;;;;;;;0.80;0.70;;;14.10;99.90;;;;;;5055523;28;20449;-77
2022/10/25 06:10:56;;;;;;;0.50;0.40;;;14.00;99.90;;;;;;5054987;28;20545;-77
2022/10/25 06:13:22;;;;;;;0.50;0.50;;;14.00;99.90;;;;;;5054406;28;20475;-77
2022/10/25 06:15:49;;;;;;;4.10;0.90;;;14.00;99.90;;;;;;5055413;28;20480;-76
2022/10/25 06:18:17;;;;;;;10.00;1.67;;;14.00;99.90;;;;;;5055006;28;20444;-77
2022/10/25 06:20:44;;;;;;;0.50;0.40;;;14.10;99.90;;;;;;5053609;28;20461;-76
2022/10/25 06:23:11;;;;;;;0.50;0.40;;;14.10;99.90;;;;;;5055488;28;20469;-77
2022/10/25 06:25:38;;;;;;;0.50;0.40;;;14.10;99.90;;;;;;5055150;28;20456;-77
2022/10/25 06:28:05;;;;;;;0.50;0.40;;;14.10;99.90;;;;;;5053590;28;20467;-77
2022/10/25 06:30:32;;;;;;;0.60;0.53;;;14.10;99.90;;;;;;5053092;28;20556;-76
2022/10/25 06:32:59;;;;;;;0.90;0.70;;;14.10;99.90;;;;;;5054164;28;20445;-77
2022/10/25 06:35:28;;;;;;;3.73;0.90;;;14.10;99.90;;;;;;5054008;28;20447;-77
2022/10/25 06:37:59;;;;;;;0.50;0.40;;;14.10;99.90;;;;;;5054557;28;20457;-77
2022/10/25 06:40:26;;;;;;;0.80;0.80;;;14.10;99.90;;;;;;5054215;28;20515;-77
2022/10/25 06:42:54;;;;;;;0.60;0.60;;;14.10;99.90;;;;;;5053889;28;20524;-77
2022/10/25 06:45:21;;;;;;;18.20;1.30;;;14.10;99.90;;;;;;5052783;28;20525;-76
2022/10/25 06:47:48;;;;;;;4.20;0.87;;;14.00;99.90;;;;;;5052559;28;20443;-77
2022/10/25 06:50:15;;;;;;;0.50;0.40;;;14.00;99.90;;;;;;5052681;28;20501;-77
2022/10/25 06:52:43;;;;;;;0.90;0.90;;;14.10;99.90;;;;;;5052464;28;20447;-75
2022/10/25 06:55:10;;;;;;;4.30;1.60;;;14.10;99.90;;;;;;5052682;28;20564;-76
2022/10/25 06:57:37;;;;;;;5.23;1.07;;;14.10;99.90;;;;;;5052895;28;20579;-76
2022/10/25 07:00:04;;;;;;;1.27;0.73;;;14.00;99.90;;;;;;5051932;28;20471;-77
2022/10/25 07:02:31;;;;;;;2.03;1.53;;;14.10;99.90;;;;;;5052831;28;20444;-76
2022/10/25 07:04:58;;;;;;;0.57;0.50;;;14.10;99.90;;;;;;5052227;28;20814;-76
2022/10/25 07:07:25;;;;;;;0.60;0.50;;;14.10;99.90;;;;;;5052306;28;20480;-76
2022/10/25 07:09:53;;;;;;;0.60;0.50;;;14.10;99.90;;;;;;5052322;28;20524;-76
2022/10/25 07:12:20;;;;;;;1.80;0.70;;;14.20;99.90;;;;;;5052567;28;20528;-76
2022/10/25 07:14:46;;;;;;;0.60;0.60;;;14.20;99.90;;;;;;5051817;28;20469;-76
2022/10/25 07:17:13;;;;;;;0.83;0.83;;;14.20;99.90;;;;;;5052544;28;20437;-76
2022/10/25 07:19:40;;;;;;;0.63;0.63;;;14.30;99.90;;;;;;5051995;28;20536;-76
2022/10/25 07:22:07;;;;;;;0.50;0.40;;;14.40;99.90;;;;;;5051934;28;20935;-77
2022/10/25 07:24:34;;;;;;;0.80;0.80;;;14.50;99.90;;;;;;5051817;28;20433;-76
2022/10/25 07:27:02;;;;;;;0.50;0.50;;;14.40;99.90;;;;;;5052282;28;20528;-76
2022/10/25 07:29:28;;;;;;;0.70;0.53;;;14.40;99.90;;;;;;5052474;28;20441;-76
2022/10/25 07:31:55;;;;;;;0.50;0.40;;;14.60;99.90;;;;;;5052070;28;20460;-76
2022/10/25 07:34:22;;;;;;;0.50;0.40;;;14.60;99.90;;;;;;5051635;28;20475;-76
2022/10/25 07:36:49;;;;;;;6.73;1.47;;;14.80;99.90;;;;;;5052128;28;20445;-75
2022/10/25 07:39:16;;;;;;;0.70;0.70;;;14.90;99.90;;;;;;5052220;28;20484;-76
2022/10/25 07:41:43;;;;;;;3.23;0.80;;;14.80;99.90;;;;;;5052144;28;20846;-76
2022/10/25 07:44:11;;;;;;;0.60;0.50;;;14.70;99.90;;;;;;5051766;28;20523;-76
2022/10/25 07:46:38;;;;;;;0.50;0.40;;;14.80;99.90;;;;;;5052036;28;20443;-76
2022/10/25 07:49:04;;;;;;;2.60;1.70;;;15.20;99.90;;;;;;5051565;28;20569;-76
2022/10/25 07:51:31;;;;;;;0.77;0.77;;;15.30;99.90;;;;;;5051414;28;20850;-76
2022/10/25 07:53:58;;;;;;;0.93;0.93;;;15.60;99.90;;;;;;5051495;28;20586;-76
2022/10/25 07:56:25;;;;;;;1.63;1.00;;;16.20;99.90;;;;;;5051455;28;20441;-76
2022/10/25 07:58:52;;;;;;;1.43;1.13;;;16.90;99.90;;;;;;5051409;28;20532;-75
2022/10/25 08:01:22;;;;;;;0.87;0.87;;;17.20;99.90;;;;;;5051871;28;20815;-76
2022/10/25 08:03:49;;;;;;;0.70;0.57;;;17.40;99.90;;;;;;5051342;28;20799;-77
2022/10/25 08:06:16;;;;;;;0.80;0.67;;;17.70;99.90;;;;;;5051242;28;20449;-77
2022/10/25 08:08:43;;;;;;;1.23;0.73;;;18.30;99.90;;;;;;5051064;28;20953;-76
2022/10/25 08:11:10;;;;;;;0.50;0.40;;;19.00;99.90;;;;;;5050568;28;20459;-76
2022/10/25 08:13:38;;;;;;;2.40;0.90;;;19.50;99.90;;;;;;5051205;28;20445;-77
2022/10/25 08:16:05;;;;;;;0.60;0.60;;;20.00;99.90;;;;;;5051325;28;20440;-76
2022/10/25 08:18:34;;;;;;;0.70;0.40;;;19.70;99.90;;;;;;5051589;28;20495;-76
2022/10/25 08:21:01;;;;;;;0.60;0.50;;;18.80;99.90;;;;;;5050659;28;20457;-77
2022/10/25 08:23:30;;;;;;;1.60;0.90;;;17.80;99.90;;;;;;5051639;28;20440;-76
2022/10/25 08:25:56;;;;;;;0.60;0.50;;;17.00;99.90;;;;;;5051356;28;20437;-76
2022/10/25 08:28:23;;;;;;;0.60;0.50;;;16.40;99.90;;;;;;5051014;28;20473;-76
2022/10/25 08:30:50;;;;;;;0.70;0.63;;;16.20;99.90;;;;;;5051103;28;20635;-76
2022/10/25 08:33:17;;;;;;;1.27;1.03;;;16.00;99.90;;;;;;5051103;28;20532;-76
2022/10/25 08:35:45;;;;;;;0.50;0.40;;;16.00;99.90;;;;;;5050779;28;20503;-76
2022/10/25 08:38:12;;;;;;;0.60;0.50;;;15.80;99.90;;;;;;5051118;28;20935;-76
2022/10/25 08:40:48;;;;;;;1.37;0.63;;;15.70;99.90;;;;;;5051169;28;20471;-75
2022/10/25 08:43:29;;;;;;;4.20;0.53;;;15.60;99.90;;;;;;5051151;28;20535;-76
2022/10/25 08:45:59;;;;;;;0.60;0.53;;;15.60;99.90;;;;;;5050942;28;20464;-76
2022/10/25 08:48:32;;;;;;;0.73;0.73;;;15.50;99.90;;;;;;5050849;28;20891;-76
2022/10/25 08:51:04;;;;;;;0.50;0.40;;;15.60;99.90;;;;;;5051050;28;20495;-76
2022/10/25 08:53:36;;;;;;;0.60;0.50;;;15.80;99.90;;;;;;5080408;22;20476;-76
2022/10/25 08:56:05;;;;;;;0.60;0.60;;;15.90;99.90;;;;;;5070435;28;20428;-76
2022/10/25 08:58:35;;;;;;;1.77;0.80;;;16.00;99.90;;;;;;5071561;28;20439;-76
2022/10/25 09:01:07;;;;;;;0.50;0.40;;;16.10;99.90;;;;;;5071267;28;20942;-76
2022/10/25 09:03:34;;;;;;;0.50;0.40;;;16.20;99.90;;;;;;5070959;28;20455;-76
2022/10/25 09:06:13;;;;;;;0.50;0.40;;;16.10;99.90;;;;;;5071431;28;20519;-77
2022/10/25 09:08:54;;;;;;;1.23;0.90;;;16.10;99.90;;;;;;5071179;28;20920;-76
2022/10/25 09:11:35;;;;;;;4.10;0.80;;;16.10;99.90;;;;;;5071759;28;20949;-75
2022/10/25 09:14:08;;;;;;;0.50;0.40;;;15.90;99.90;;;;;;5071118;28;20546;-77
2022/10/25 09:16:42;;;;;;;0.50;0.40;;;15.90;99.90;;;;;;5071160;28;20417;-76
2022/10/25 09:19:17;;;;;;;5.17;2.30;;;15.80;99.90;;;;;;5071724;28;20440;-76
2022/10/25 09:21:50;;;;;;;1.90;1.00;;;15.70;99.90;;;;;;5071513;28;20420;-76
2022/10/25 09:24:22;;;;;;;0.50;0.33;;;15.70;99.90;;;;;;5074691;28;20458;-76
2022/10/25 09:26:58;;;;;;;0.50;0.40;;;15.60;99.90;;;;;;5075053;28;20460;-75
2022/10/25 09:29:30;;;;;;;0.80;0.70;;;15.70;99.90;;;;;;5074734;28;20428;-76
2022/10/25 09:31:59;;;;;;;0.77;0.50;;;15.80;99.90;;;;;;5074660;28;20455;-75
2022/10/25 09:34:31;;;;;;;1.10;0.93;;;15.90;99.90;;;;;;5074336;28;20849;-76
2022/10/25 09:37:09;;;;;;;0.60;0.50;;;16.10;99.90;;;;;;5074734;28;20424;-76
2022/10/25 09:39:40;;;;;;;0.50;0.40;;;16.00;99.90;;;;;;5074854;28;20435;-77
2022/10/25 09:42:17;;;;;;;0.80;0.63;;;15.90;99.90;;;;;;5074595;28;20440;-74
2022/10/25 09:44:47;;;;;;;0.50;0.30;;;15.90;99.90;;;;;;5074797;28;20490;-76
2022/10/25 09:47:25;;;;;;;0.50;0.50;;;15.90;99.90;;;;;;5074176;28;20953;-73
2022/10/25 09:49:57;;;;;;;0.70;0.63;;;15.90;99.90;;;;;;5074156;28;20953;-77
2022/10/25 09:52:32;;;;;;;0.93;0.60;;;15.90;99.90;;;;;;5074329;28;20444;-77
2022/10/25 09:55:13;;;;;;;0.60;0.53;;;15.90;99.90;;;;;;5074096;28;20455;-77
2022/10/25 09:57:40;;;;;;;0.50;0.37;;;16.00;99.90;;;;;;5073875;28;20440;-77
2022/10/25 10:00:12;;;;;;;0.60;0.43;;;16.30;99.90;;;;;;5073883;28;20444;-76
2022/10/25 10:02:39;;;;;;;0.50;0.30;;;16.50;99.90;;;;;;5074302;28;20570;-76
2022/10/25 10:05:14;;;;;;;0.50;0.40;;;16.60;99.90;;;;;;5073804;28;20440;-77
2022/10/25 10:07:43;;;;;;;0.50;0.30;;;16.60;99.90;;;;;;5074622;28;20963;-76
2022/10/25 10:10:13;;;;;;;0.50;0.30;;;16.60;99.90;;;;;;5073997;28;20439;-77
2022/10/25 10:12:46;;;;;;;0.50;0.30;;;16.60;99.90;;;;;;5074446;28;20452;-77
2022/10/25 10:15:19;;;;;;;0.50;0.30;;;16.50;99.90;;;;;;5073836;28;20856;-76
2022/10/25 10:17:45;;;;;;;2.90;0.67;;;16.50;99.90;;;;;;5074777;28;20431;-76
2022/10/25 10:20:15;;;;;;;5.47;2.13;;;16.40;99.90;;;;;;5073691;28;20452;-77
2022/10/25 10:22:50;;;;;;;1.37;1.27;;;16.30;99.90;;;;;;5073744;28;20458;-77
2022/10/25 10:25:21;;;;;;;0.60;0.50;;;16.20;99.90;;;;;;5073441;28;20432;-77
2022/10/25 10:27:50;;;;;;;0.50;0.30;;;16.20;99.90;;;;;;5073735;28;20783;-77
2022/10/25 10:30:27;;;;;;;13.83;1.37;;;16.20;99.90;;;;;;5073837;28;20455;-77
2022/10/25 10:32:57;;;;;;;0.60;0.60;;;16.20;99.90;;;;;;5073098;28;20452;-77
2022/10/25 10:35:30;;;;;;;0.50;0.40;;;16.30;99.90;;;;;;5073135;28;20474;-77
2022/10/25 10:38:26;;;;;;;1.27;0.67;;;16.30;99.90;;;;;;5073525;28;20437;-75
2022/10/25 10:40:55;;;;;;;0.97;0.87;;;16.30;99.90;;;;;;5073705;28;20504;-76
2022/10/25 10:43:24;;;;;;;0.50;0.30;;;16.30;99.90;;;;;;5074067;28;20545;-76
2022/10/25 10:45:51;;;;;;;0.50;0.40;;;16.50;99.90;;;;;;5072716;28;20432;-78
2022/10/25 10:48:20;;;;;;;0.50;0.30;;;16.50;99.90;;;;;;5073621;28;20439;-77
2022/10/25 10:50:49;;;;;;;0.50;0.50;;;16.50;99.90;;;;;;5073357;28;20444;-77
2022/10/25 10:53:21;;;;;;;0.50;0.30;;;16.50;99.90;;;;;;5072855;28;20468;-77
2022/10/25 10:55:51;;;;;;;0.50;0.30;;;16.60;99.90;;;;;;5073445;28;20817;-78
2022/10/25 10:58:22;;;;;;;8.43;1.50;;;16.90;99.90;;;;;;5073659;28;20436;-76
2022/10/25 11:00:50;;;;;;;0.60;0.50;;;17.10;99.90;;;;;;5073567;28;20430;-77
2022/10/25 11:03:37;;;;;;;3.00;0.60;;;16.90;99.90;;;;;;5073051;28;20456;-76
2022/10/25 11:06:07;;;;;;;0.50;0.40;;;16.60;99.90;;;;;;5072793;28;20436;-77
2022/10/25 11:08:35;;;;;;;0.93;0.83;;;16.40;99.90;;;;;;5073285;28;20436;-77
2022/10/25 11:11:19;;;;;;;6.40;0.80;;;16.30;99.90;;;;;;5072817;28;20732;-77
2022/10/25 11:13:55;;;;;;;0.57;0.47;;;16.20;99.90;;;;;;5072809;28;20468;-77
2022/10/25 11:16:45;;;;;;;2.10;0.87;;;16.10;99.90;;;;;;5073095;28;20456;-77
2022/10/25 11:19:42;;;;;;;0.60;0.60;;;16.00;99.90;;;;;;5072340;28;20914;-76
2022/10/25 11:22:33;;;;;;;1.67;1.17;;;16.00;99.90;;;;;;5069524;28;20444;-75
2022/10/25 11:25:14;;;;;;;2.40;1.20;;;15.90;99.90;;;;;;5072481;28;20434;-77
2022/10/25 11:27:57;;;;;;;0.50;0.30;;;15.90;99.90;;;;;;5072262;28;20523;-76
2022/10/25 11:30:27;;;;;;;0.50;0.40;;;16.00;99.90;;;;;;5072538;28;20427;-77
2022/10/25 11:33:17;;;;;;;0.60;0.50;;;16.30;99.90;;;;;;5072667;28;20498;-76
2022/10/25 11:36:05;;;;;;;0.73;0.73;;;16.80;99.90;;;;;;5072018;28;20457;-77
2022/10/25 11:38:44;;;;;;;0.50;0.40;;;17.00;99.90;;;;;;5072088;28;20439;-76
2022/10/25 11:41:26;;;;;;;1.57;0.97;;;17.00;99.90;;;;;;5072294;28;20431;-76
2022/10/25 11:44:07;;;;;;;0.53;0.40;;;17.10;99.90;;;;;;5072208;28;20456;-76
2022/10/25 11:46:43;;;;;;;0.50;0.30;;;17.10;99.90;;;;;;5072210;28;20969;-77
2022/10/25 11:49:30;;;;;;;0.80;0.67;;;17.10;99.90;;;;;;5071857;28;20511;-77
2022/10/25 11:52:14;;;;;;;0.50;0.40;;;17.10;99.90;;;;;;5072163;28;20416;-78
2022/10/25 11:54:45;;;;;;;0.67;0.53;;;17.20;99.90;;;;;;5071994;28;20436;-77
2022/10/25 11:57:22;;;;;;;2.97;0.70;;;17.20;99.90;;;;;;5073167;28;20424;-77
2022/10/25 11:59:59;;;;;;;0.60;0.50;;;17.20;99.90;;;;;;5071986;28;20448;-77
2022/10/25 12:02:46;;;;;;;0.60;0.50;;;16.90;99.90;;;;;;5072376;28;20894;-76
2022/10/25 12:05:28;;;;;;;0.50;0.40;;;16.70;99.90;;;;;;5071457;28;20450;-73
2022/10/25 12:08:06;;;;;;;0.50;0.40;;;16.70;99.90;;;;;;5071933;28;20455;-76
2022/10/25 12:10:37;;;;;;;0.50;0.30;;;16.70;99.90;;;;;;5072504;28;20785;-76
2022/10/25 12:13:13;;;;;;;0.50;0.33;;;16.70;99.90;;;;;;5071665;28;20544;-76
2022/10/25 12:15:42;;;;;;;0.50;0.30;;;16.90;99.90;;;;;;5072147;28;20559;-76
2022/10/25 12:18:14;;;;;;;0.50;0.30;;;16.90;99.90;;;;;;5071785;28;20513;-77
2022/10/25 12:20:44;;;;;;;0.60;0.60;;;17.10;99.90;;;;;;5071499;28;20448;-76
2022/10/25 12:23:16;;;;;;;0.60;0.50;;;17.10;99.90;;;;;;5072628;28;20448;-73
2022/10/25 12:25:47;;;;;;;0.50;0.40;;;16.90;99.90;;;;;;5071609;28;20886;-76
2022/10/25 12:28:23;;;;;;;0.50;0.30;;;16.80;99.90;;;;;;5071923;28;20885;-76
2022/10/25 12:30:56;;;;;;;0.60;0.53;;;16.70;99.90;;;;;;5072279;28;20432;-76
2022/10/25 12:33:31;;;;;;;12.10;1.07;;;16.60;99.90;;;;;;5072102;28;20484;-76
2022/10/25 12:36:01;;;;;;;0.50;0.40;;;16.60;99.90;;;;;;5071884;28;20960;-76
2022/10/25 12:38:33;;;;;;;0.60;0.40;;;16.70;99.90;;;;;;5071609;28;20821;-75
2022/10/25 12:41:04;;;;;;;1.00;0.80;;;17.00;99.90;;;;;;5072144;28;20444;-76
2022/10/25 12:43:37;;;;;;;0.50;0.50;;;17.10;99.90;;;;;;5072405;28;20977;-75
2022/10/25 12:46:24;;;;;;;0.50;0.40;;;17.10;99.90;;;;;;5071710;28;20427;-75
2022/10/25 12:49:19;;;;;;;0.50;0.30;;;17.10;99.90;;;;;;5072163;28;20427;-78
2022/10/25 12:52:14;;;;;;;0.50;0.40;;;17.00;99.90;;;;;;5071588;28;20809;-76
2022/10/25 12:54:59;;;;;;;0.50;0.30;;;16.90;99.90;;;;;;5071699;28;20420;-76
2022/10/25 12:57:33;;;;;;;0.50;0.30;;;16.90;99.90;;;;;;5072618;28;20431;-77
2022/10/25 13:00:10;;;;;;;0.50;0.30;;;16.90;99.90;;;;;;5075858;28;20786;-76
2022/10/25 13:03:10;;;;;;;0.50;0.40;;;16.80;99.90;;;;;;5075312;28;20829;-77
2022/10/25 13:06:09;;;;;;;0.50;0.30;;;16.80;99.90;;;;;;5061736;28;20450;-77